sensor_id;sensor_type;location;lat;lon;timestamp;P1;durP1;ratioP1;P2;durP2;ratioP2
4638;SDS011;2332;38.646;-9.154;2024-02-26T00:01:40;10.43;;;2.10;;
4638;SDS011;2332;38.646;-9.154;2024-02-26T00:04:06;11.70;;;2.47;;
4638;SDS011;2332;38.646;-9.154;2024-02-26T00:06:31;10.20;;;1.97;;
4638;SDS011;2332;38.646;-9.154;2024-02-26T00:08:57;17.57;;;2.13;;
4638;SDS011;2332;38.646;-9.154;2024-02-26T00:11:22;13.23;;;2.20;;
4638;SDS011;2332;38.646;-9.154;2024-02-26T00:13:47;8.10;;;2.30;;
4638;SDS011;2332;38.646;-9.154;2024-02-26T00:16:13;12.70;;;1.97;;
4638;SDS011;2332;38.646;-9.154;2024-02-26T00:18:38;5.00;;;1.60;;
4638;SDS011;2332;38.646;-9.154;2024-02-26T00:21:04;11.23;;;2.20;;
4638;SDS011;2332;38.646;-9.154;2024-02-26T00:23:29;12.23;;;2.67;;
4638;SDS011;2332;38.646;-9.154;2024-02-26T00:25:55;7.03;;;1.73;;
4638;SDS011;2332;38.646;-9.154;2024-02-26T00:28:20;10.97;;;2.30;;
4638;SDS011;2332;38.646;-9.154;2024-02-26T00:30:46;6.20;;;1.47;;
4638;SDS011;2332;38.646;-9.154;2024-02-26T00:33:12;6.67;;;1.43;;
4638;SDS011;2332;38.646;-9.154;2024-02-26T00:35:37;6.13;;;2.00;;
4638;SDS011;2332;38.646;-9.154;2024-02-26T00:38:02;11.90;;;2.03;;
4638;SDS011;2332;38.646;-9.154;2024-02-26T00:40:28;7.97;;;1.80;;
4638;SDS011;2332;38.646;-9.154;2024-02-26T00:42:54;7.27;;;2.23;;
4638;SDS011;2332;38.646;-9.154;2024-02-26T00:45:19;3.90;;;1.80;;
4638;SDS011;2332;38.646;-9.154;2024-02-26T00:47:44;5.47;;;2.00;;
4638;SDS011;2332;38.646;-9.154;2024-02-26T00:50:12;6.80;;;1.53;;
4638;SDS011;2332;38.646;-9.154;2024-02-26T00:52:37;4.43;;;1.40;;
4638;SDS011;2332;38.646;-9.154;2024-02-26T00:55:03;9.00;;;1.90;;
4638;SDS011;2332;38.646;-9.154;2024-02-26T00:57:28;3.23;;;1.30;;
4638;SDS011;2332;38.646;-9.154;2024-02-26T00:59:54;6.57;;;1.50;;
4638;SDS011;2332;38.646;-9.154;2024-02-26T01:02:24;7.60;;;1.30;;
4638;SDS011;2332;38.646;-9.154;2024-02-26T01:04:49;5.70;;;1.90;;
4638;SDS011;2332;38.646;-9.154;2024-02-26T01:07:17;6.00;;;1.57;;
4638;SDS011;2332;38.646;-9.154;2024-02-26T01:09:42;7.87;;;2.13;;
4638;SDS011;2332;38.646;-9.154;2024-02-26T01:12:08;3.27;;;1.33;;
4638;SDS011;2332;38.646;-9.154;2024-02-26T01:14:33;8.90;;;1.50;;
4638;SDS011;2332;38.646;-9.154;2024-02-26T01:16:59;10.80;;;1.90;;
4638;SDS011;2332;38.646;-9.154;2024-02-26T01:19:26;9.17;;;2.00;;
4638;SDS011;2332;38.646;-9.154;2024-02-26T01:21:52;13.33;;;2.60;;
4638;SDS011;2332;38.646;-9.154;2024-02-26T01:24:20;13.77;;;2.33;;
4638;SDS011;2332;38.646;-9.154;2024-02-26T01:26:46;7.90;;;2.20;;
4638;SDS011;2332;38.646;-9.154;2024-02-26T01:29:11;7.97;;;1.67;;
4638;SDS011;2332;38.646;-9.154;2024-02-26T01:31:42;5.63;;;1.70;;
4638;SDS011;2332;38.646;-9.154;2024-02-26T01:34:07;16.23;;;2.87;;
4638;SDS011;2332;38.646;-9.154;2024-02-26T01:36:33;12.33;;;2.40;;
4638;SDS011;2332;38.646;-9.154;2024-02-26T01:38:59;11.30;;;2.33;;
4638;SDS011;2332;38.646;-9.154;2024-02-26T01:41:24;13.70;;;2.03;;
4638;SDS011;2332;38.646;-9.154;2024-02-26T01:43:50;11.37;;;2.80;;
4638;SDS011;2332;38.646;-9.154;2024-02-26T01:46:15;11.93;;;2.93;;
4638;SDS011;2332;38.646;-9.154;2024-02-26T01:48:41;10.83;;;2.70;;
4638;SDS011;2332;38.646;-9.154;2024-02-26T01:51:07;10.87;;;2.47;;
4638;SDS011;2332;38.646;-9.154;2024-02-26T01:53:32;22.90;;;3.40;;
4638;SDS011;2332;38.646;-9.154;2024-02-26T01:55:58;20.83;;;3.27;;
4638;SDS011;2332;38.646;-9.154;2024-02-26T01:58:23;18.43;;;3.10;;
4638;SDS011;2332;38.646;-9.154;2024-02-26T02:00:49;11.07;;;2.37;;
4638;SDS011;2332;38.646;-9.154;2024-02-26T02:03:14;20.00;;;2.40;;
4638;SDS011;2332;38.646;-9.154;2024-02-26T02:05:40;22.90;;;3.17;;
4638;SDS011;2332;38.646;-9.154;2024-02-26T02:08:08;11.97;;;2.47;;
4638;SDS011;2332;38.646;-9.154;2024-02-26T02:10:34;14.03;;;2.10;;
4638;SDS011;2332;38.646;-9.154;2024-02-26T02:12:59;12.93;;;2.80;;
4638;SDS011;2332;38.646;-9.154;2024-02-26T02:15:24;10.07;;;2.50;;
4638;SDS011;2332;38.646;-9.154;2024-02-26T02:17:50;17.17;;;3.43;;
4638;SDS011;2332;38.646;-9.154;2024-02-26T02:20:16;13.40;;;2.37;;
4638;SDS011;2332;38.646;-9.154;2024-02-26T02:22:42;12.03;;;2.57;;
4638;SDS011;2332;38.646;-9.154;2024-02-26T02:25:07;18.30;;;2.83;;
4638;SDS011;2332;38.646;-9.154;2024-02-26T02:27:33;11.70;;;2.50;;
4638;SDS011;2332;38.646;-9.154;2024-02-26T02:29:58;9.90;;;3.00;;
4638;SDS011;2332;38.646;-9.154;2024-02-26T02:32:24;24.07;;;4.10;;
4638;SDS011;2332;38.646;-9.154;2024-02-26T02:34:50;21.43;;;3.70;;
4638;SDS011;2332;38.646;-9.154;2024-02-26T02:37:15;18.80;;;3.53;;
4638;SDS011;2332;38.646;-9.154;2024-02-26T02:39:41;29.03;;;4.17;;
4638;SDS011;2332;38.646;-9.154;2024-02-26T02:42:08;18.63;;;3.70;;
4638;SDS011;2332;38.646;-9.154;2024-02-26T02:44:33;26.77;;;3.80;;
4638;SDS011;2332;38.646;-9.154;2024-02-26T02:46:59;19.73;;;3.47;;
4638;SDS011;2332;38.646;-9.154;2024-02-26T02:49:24;21.53;;;3.57;;
4638;SDS011;2332;38.646;-9.154;2024-02-26T02:51:49;21.53;;;3.30;;
4638;SDS011;2332;38.646;-9.154;2024-02-26T02:54:15;29.90;;;3.97;;
4638;SDS011;2332;38.646;-9.154;2024-02-26T02:56:40;16.93;;;3.00;;
4638;SDS011;2332;38.646;-9.154;2024-02-26T02:59:06;25.13;;;3.40;;
4638;SDS011;2332;38.646;-9.154;2024-02-26T03:01:31;23.00;;;4.10;;
4638;SDS011;2332;38.646;-9.154;2024-02-26T03:03:56;19.63;;;3.40;;
4638;SDS011;2332;38.646;-9.154;2024-02-26T03:06:22;17.37;;;3.30;;
4638;SDS011;2332;38.646;-9.154;2024-02-26T03:08:48;16.00;;;2.93;;
4638;SDS011;2332;38.646;-9.154;2024-02-26T03:11:13;24.60;;;3.80;;
4638;SDS011;2332;38.646;-9.154;2024-02-26T03:13:40;23.93;;;3.50;;
4638;SDS011;2332;38.646;-9.154;2024-02-26T03:16:05;22.00;;;3.63;;
4638;SDS011;2332;38.646;-9.154;2024-02-26T03:18:31;17.47;;;3.40;;
4638;SDS011;2332;38.646;-9.154;2024-02-26T03:20:56;24.30;;;4.03;;
4638;SDS011;2332;38.646;-9.154;2024-02-26T03:23:21;19.57;;;3.80;;
4638;SDS011;2332;38.646;-9.154;2024-02-26T03:25:47;21.37;;;3.90;;
4638;SDS011;2332;38.646;-9.154;2024-02-26T03:28:13;17.17;;;3.23;;
4638;SDS011;2332;38.646;-9.154;2024-02-26T03:30:38;20.17;;;4.20;;
4638;SDS011;2332;38.646;-9.154;2024-02-26T03:33:03;27.53;;;4.57;;
4638;SDS011;2332;38.646;-9.154;2024-02-26T03:35:29;23.90;;;4.27;;
4638;SDS011;2332;38.646;-9.154;2024-02-26T03:37:54;21.40;;;3.70;;
4638;SDS011;2332;38.646;-9.154;2024-02-26T03:40:20;24.83;;;3.73;;
4638;SDS011;2332;38.646;-9.154;2024-02-26T03:42:45;28.07;;;4.00;;
4638;SDS011;2332;38.646;-9.154;2024-02-26T03:45:10;22.03;;;3.20;;
4638;SDS011;2332;38.646;-9.154;2024-02-26T03:47:37;25.57;;;3.70;;
4638;SDS011;2332;38.646;-9.154;2024-02-26T03:50:03;15.03;;;3.10;;
4638;SDS011;2332;38.646;-9.154;2024-02-26T03:52:30;16.03;;;3.40;;
4638;SDS011;2332;38.646;-9.154;2024-02-26T03:54:55;28.60;;;3.77;;
4638;SDS011;2332;38.646;-9.154;2024-02-26T03:57:20;27.50;;;4.27;;
4638;SDS011;2332;38.646;-9.154;2024-02-26T03:59:46;23.63;;;3.90;;
4638;SDS011;2332;38.646;-9.154;2024-02-26T04:02:11;32.53;;;4.40;;
4638;SDS011;2332;38.646;-9.154;2024-02-26T04:04:36;19.63;;;3.73;;
4638;SDS011;2332;38.646;-9.154;2024-02-26T04:07:02;20.67;;;3.83;;
4638;SDS011;2332;38.646;-9.154;2024-02-26T04:09:27;20.97;;;4.23;;
4638;SDS011;2332;38.646;-9.154;2024-02-26T04:11:53;27.47;;;4.50;;
4638;SDS011;2332;38.646;-9.154;2024-02-26T04:14:18;29.13;;;4.20;;
4638;SDS011;2332;38.646;-9.154;2024-02-26T04:16:43;25.90;;;3.70;;
4638;SDS011;2332;38.646;-9.154;2024-02-26T04:19:09;18.73;;;3.87;;
4638;SDS011;2332;38.646;-9.154;2024-02-26T04:21:34;25.80;;;4.37;;
4638;SDS011;2332;38.646;-9.154;2024-02-26T04:24:00;26.23;;;4.10;;
4638;SDS011;2332;38.646;-9.154;2024-02-26T04:26:27;29.80;;;6.00;;
4638;SDS011;2332;38.646;-9.154;2024-02-26T04:28:52;22.10;;;4.37;;
4638;SDS011;2332;38.646;-9.154;2024-02-26T04:31:18;38.40;;;4.60;;
4638;SDS011;2332;38.646;-9.154;2024-02-26T04:33:43;33.70;;;4.57;;
4638;SDS011;2332;38.646;-9.154;2024-02-26T04:36:15;34.80;;;5.77;;
4638;SDS011;2332;38.646;-9.154;2024-02-26T04:38:42;36.27;;;4.77;;
4638;SDS011;2332;38.646;-9.154;2024-02-26T04:41:07;21.53;;;4.43;;
4638;SDS011;2332;38.646;-9.154;2024-02-26T04:43:32;35.30;;;5.63;;
4638;SDS011;2332;38.646;-9.154;2024-02-26T04:45:58;26.50;;;4.10;;
4638;SDS011;2332;38.646;-9.154;2024-02-26T04:48:23;25.00;;;4.50;;
4638;SDS011;2332;38.646;-9.154;2024-02-26T04:50:49;26.00;;;4.30;;
4638;SDS011;2332;38.646;-9.154;2024-02-26T04:53:14;31.33;;;4.67;;
4638;SDS011;2332;38.646;-9.154;2024-02-26T04:55:39;27.97;;;4.67;;
4638;SDS011;2332;38.646;-9.154;2024-02-26T04:58:05;26.17;;;4.77;;
4638;SDS011;2332;38.646;-9.154;2024-02-26T05:00:30;25.60;;;5.53;;
4638;SDS011;2332;38.646;-9.154;2024-02-26T05:02:55;31.60;;;4.80;;
4638;SDS011;2332;38.646;-9.154;2024-02-26T05:05:21;36.57;;;6.40;;
4638;SDS011;2332;38.646;-9.154;2024-02-26T05:07:47;32.17;;;5.00;;
4638;SDS011;2332;38.646;-9.154;2024-02-26T05:10:12;34.60;;;5.17;;
4638;SDS011;2332;38.646;-9.154;2024-02-26T05:12:37;20.83;;;4.10;;
4638;SDS011;2332;38.646;-9.154;2024-02-26T05:15:03;33.63;;;5.90;;
4638;SDS011;2332;38.646;-9.154;2024-02-26T05:17:29;22.47;;;3.80;;
4638;SDS011;2332;38.646;-9.154;2024-02-26T05:19:54;32.43;;;5.10;;
4638;SDS011;2332;38.646;-9.154;2024-02-26T05:22:20;26.47;;;5.10;;
4638;SDS011;2332;38.646;-9.154;2024-02-26T05:24:45;25.70;;;3.93;;
4638;SDS011;2332;38.646;-9.154;2024-02-26T05:27:10;27.63;;;4.47;;
4638;SDS011;2332;38.646;-9.154;2024-02-26T05:29:37;26.63;;;4.57;;
4638;SDS011;2332;38.646;-9.154;2024-02-26T05:32:02;30.03;;;4.57;;
4638;SDS011;2332;38.646;-9.154;2024-02-26T05:34:28;31.73;;;4.20;;
4638;SDS011;2332;38.646;-9.154;2024-02-26T05:36:55;30.17;;;4.70;;
4638;SDS011;2332;38.646;-9.154;2024-02-26T05:39:20;25.93;;;4.60;;
4638;SDS011;2332;38.646;-9.154;2024-02-26T05:41:45;30.13;;;5.67;;
4638;SDS011;2332;38.646;-9.154;2024-02-26T05:44:11;26.80;;;5.47;;
4638;SDS011;2332;38.646;-9.154;2024-02-26T05:46:36;29.30;;;4.37;;
4638;SDS011;2332;38.646;-9.154;2024-02-26T05:49:02;23.67;;;4.37;;
4638;SDS011;2332;38.646;-9.154;2024-02-26T05:51:28;28.70;;;3.60;;
4638;SDS011;2332;38.646;-9.154;2024-02-26T05:53:53;36.67;;;5.87;;
4638;SDS011;2332;38.646;-9.154;2024-02-26T05:56:22;24.20;;;4.40;;
4638;SDS011;2332;38.646;-9.154;2024-02-26T05:58:48;19.53;;;4.20;;
4638;SDS011;2332;38.646;-9.154;2024-02-26T06:01:15;31.70;;;4.37;;
4638;SDS011;2332;38.646;-9.154;2024-02-26T06:03:40;21.73;;;3.60;;
4638;SDS011;2332;38.646;-9.154;2024-02-26T06:06:06;21.40;;;4.10;;
4638;SDS011;2332;38.646;-9.154;2024-02-26T06:08:31;26.97;;;4.33;;
4638;SDS011;2332;38.646;-9.154;2024-02-26T06:10:56;23.97;;;4.30;;
4638;SDS011;2332;38.646;-9.154;2024-02-26T06:13:22;27.50;;;4.60;;
4638;SDS011;2332;38.646;-9.154;2024-02-26T06:15:47;25.53;;;4.20;;
4638;SDS011;2332;38.646;-9.154;2024-02-26T06:18:13;25.07;;;4.93;;
4638;SDS011;2332;38.646;-9.154;2024-02-26T06:20:38;30.73;;;4.07;;
4638;SDS011;2332;38.646;-9.154;2024-02-26T06:23:04;23.37;;;4.27;;
4638;SDS011;2332;38.646;-9.154;2024-02-26T06:25:29;27.20;;;5.63;;
4638;SDS011;2332;38.646;-9.154;2024-02-26T06:27:55;33.53;;;4.13;;
4638;SDS011;2332;38.646;-9.154;2024-02-26T06:30:20;23.50;;;4.00;;
4638;SDS011;2332;38.646;-9.154;2024-02-26T06:32:45;21.10;;;4.10;;
4638;SDS011;2332;38.646;-9.154;2024-02-26T06:35:11;26.50;;;4.73;;
4638;SDS011;2332;38.646;-9.154;2024-02-26T06:37:36;34.17;;;6.20;;
4638;SDS011;2332;38.646;-9.154;2024-02-26T06:40:02;34.07;;;4.60;;
4638;SDS011;2332;38.646;-9.154;2024-02-26T06:42:32;37.27;;;5.20;;
4638;SDS011;2332;38.646;-9.154;2024-02-26T06:44:57;52.60;;;5.97;;
4638;SDS011;2332;38.646;-9.154;2024-02-26T06:47:23;24.90;;;5.13;;
4638;SDS011;2332;38.646;-9.154;2024-02-26T06:49:48;27.20;;;4.37;;
4638;SDS011;2332;38.646;-9.154;2024-02-26T06:52:13;24.83;;;3.13;;
4638;SDS011;2332;38.646;-9.154;2024-02-26T06:54:39;20.50;;;4.47;;
4638;SDS011;2332;38.646;-9.154;2024-02-26T06:57:04;24.73;;;3.93;;
4638;SDS011;2332;38.646;-9.154;2024-02-26T06:59:30;22.37;;;4.23;;
4638;SDS011;2332;38.646;-9.154;2024-02-26T07:01:55;17.67;;;3.20;;
4638;SDS011;2332;38.646;-9.154;2024-02-26T07:04:20;22.53;;;3.50;;
4638;SDS011;2332;38.646;-9.154;2024-02-26T07:06:46;13.73;;;2.40;;
4638;SDS011;2332;38.646;-9.154;2024-02-26T07:09:12;19.77;;;3.20;;
4638;SDS011;2332;38.646;-9.154;2024-02-26T07:11:38;22.40;;;3.50;;
4638;SDS011;2332;38.646;-9.154;2024-02-26T07:14:07;17.90;;;3.87;;
4638;SDS011;2332;38.646;-9.154;2024-02-26T07:16:32;18.73;;;3.20;;
4638;SDS011;2332;38.646;-9.154;2024-02-26T07:18:57;19.93;;;4.10;;
4638;SDS011;2332;38.646;-9.154;2024-02-26T07:21:23;17.40;;;2.60;;
4638;SDS011;2332;38.646;-9.154;2024-02-26T07:23:49;15.40;;;3.20;;
4638;SDS011;2332;38.646;-9.154;2024-02-26T07:26:14;21.47;;;3.40;;
4638;SDS011;2332;38.646;-9.154;2024-02-26T07:28:40;14.67;;;2.60;;
4638;SDS011;2332;38.646;-9.154;2024-02-26T07:31:05;15.30;;;3.50;;
4638;SDS011;2332;38.646;-9.154;2024-02-26T07:33:30;24.93;;;3.77;;
4638;SDS011;2332;38.646;-9.154;2024-02-26T07:35:56;26.83;;;3.50;;
4638;SDS011;2332;38.646;-9.154;2024-02-26T07:38:21;19.43;;;3.20;;
4638;SDS011;2332;38.646;-9.154;2024-02-26T07:40:48;19.33;;;3.27;;
4638;SDS011;2332;38.646;-9.154;2024-02-26T07:43:13;15.97;;;3.43;;
4638;SDS011;2332;38.646;-9.154;2024-02-26T07:45:39;24.27;;;3.87;;
4638;SDS011;2332;38.646;-9.154;2024-02-26T07:48:04;17.17;;;3.63;;
4638;SDS011;2332;38.646;-9.154;2024-02-26T07:50:30;12.40;;;3.13;;
4638;SDS011;2332;38.646;-9.154;2024-02-26T07:52:55;16.60;;;3.80;;
4638;SDS011;2332;38.646;-9.154;2024-02-26T07:55:21;16.50;;;3.03;;
4638;SDS011;2332;38.646;-9.154;2024-02-26T07:57:47;23.10;;;3.67;;
4638;SDS011;2332;38.646;-9.154;2024-02-26T08:00:12;15.63;;;3.63;;
4638;SDS011;2332;38.646;-9.154;2024-02-26T08:02:41;17.67;;;3.40;;
4638;SDS011;2332;38.646;-9.154;2024-02-26T08:05:07;16.07;;;3.50;;
4638;SDS011;2332;38.646;-9.154;2024-02-26T08:07:32;12.40;;;3.03;;
4638;SDS011;2332;38.646;-9.154;2024-02-26T08:09:58;10.90;;;2.30;;
4638;SDS011;2332;38.646;-9.154;2024-02-26T08:12:23;12.30;;;2.87;;
4638;SDS011;2332;38.646;-9.154;2024-02-26T08:14:49;11.97;;;2.07;;
4638;SDS011;2332;38.646;-9.154;2024-02-26T08:17:14;16.63;;;2.50;;
4638;SDS011;2332;38.646;-9.154;2024-02-26T08:19:39;14.63;;;2.57;;
4638;SDS011;2332;38.646;-9.154;2024-02-26T08:22:05;10.10;;;1.93;;
4638;SDS011;2332;38.646;-9.154;2024-02-26T08:24:30;17.50;;;3.33;;
4638;SDS011;2332;38.646;-9.154;2024-02-26T08:26:55;16.30;;;2.90;;
4638;SDS011;2332;38.646;-9.154;2024-02-26T08:29:21;16.13;;;2.97;;
4638;SDS011;2332;38.646;-9.154;2024-02-26T08:31:46;10.23;;;2.60;;
4638;SDS011;2332;38.646;-9.154;2024-02-26T08:34:13;21.27;;;3.33;;
4638;SDS011;2332;38.646;-9.154;2024-02-26T08:36:38;19.90;;;4.03;;
4638;SDS011;2332;38.646;-9.154;2024-02-26T08:39:04;12.23;;;2.60;;
4638;SDS011;2332;38.646;-9.154;2024-02-26T08:41:29;15.47;;;3.87;;
4638;SDS011;2332;38.646;-9.154;2024-02-26T08:43:54;16.30;;;3.50;;
4638;SDS011;2332;38.646;-9.154;2024-02-26T08:46:20;14.50;;;3.70;;
4638;SDS011;2332;38.646;-9.154;2024-02-26T08:48:45;16.67;;;3.90;;
4638;SDS011;2332;38.646;-9.154;2024-02-26T08:51:11;26.03;;;4.80;;
4638;SDS011;2332;38.646;-9.154;2024-02-26T08:53:36;21.43;;;4.13;;
4638;SDS011;2332;38.646;-9.154;2024-02-26T08:56:02;19.83;;;4.30;;
4638;SDS011;2332;38.646;-9.154;2024-02-26T08:58:27;23.87;;;3.97;;
4638;SDS011;2332;38.646;-9.154;2024-02-26T09:00:53;27.23;;;4.40;;
4638;SDS011;2332;38.646;-9.154;2024-02-26T09:03:18;21.33;;;4.37;;
4638;SDS011;2332;38.646;-9.154;2024-02-26T09:05:44;17.63;;;4.23;;
4638;SDS011;2332;38.646;-9.154;2024-02-26T09:08:09;26.43;;;3.90;;
4638;SDS011;2332;38.646;-9.154;2024-02-26T09:10:35;31.80;;;4.93;;
4638;SDS011;2332;38.646;-9.154;2024-02-26T09:13:00;19.10;;;3.50;;
4638;SDS011;2332;38.646;-9.154;2024-02-26T09:15:26;35.90;;;4.37;;
4638;SDS011;2332;38.646;-9.154;2024-02-26T09:17:54;27.43;;;4.23;;
4638;SDS011;2332;38.646;-9.154;2024-02-26T09:20:19;15.03;;;3.40;;
4638;SDS011;2332;38.646;-9.154;2024-02-26T09:22:48;18.23;;;3.03;;
4638;SDS011;2332;38.646;-9.154;2024-02-26T09:25:14;19.97;;;5.00;;
4638;SDS011;2332;38.646;-9.154;2024-02-26T09:27:41;17.80;;;3.50;;
4638;SDS011;2332;38.646;-9.154;2024-02-26T09:30:06;22.53;;;4.10;;
4638;SDS011;2332;38.646;-9.154;2024-02-26T09:32:32;20.20;;;4.43;;
4638;SDS011;2332;38.646;-9.154;2024-02-26T09:34:58;20.50;;;4.30;;
4638;SDS011;2332;38.646;-9.154;2024-02-26T09:37:23;19.07;;;3.33;;
4638;SDS011;2332;38.646;-9.154;2024-02-26T09:39:48;17.07;;;3.27;;
4638;SDS011;2332;38.646;-9.154;2024-02-26T09:42:14;20.93;;;3.10;;
4638;SDS011;2332;38.646;-9.154;2024-02-26T09:44:40;28.27;;;4.23;;
4638;SDS011;2332;38.646;-9.154;2024-02-26T09:47:10;30.77;;;3.90;;
4638;SDS011;2332;38.646;-9.154;2024-02-26T09:49:36;16.17;;;3.87;;
4638;SDS011;2332;38.646;-9.154;2024-02-26T09:52:03;23.10;;;4.10;;
4638;SDS011;2332;38.646;-9.154;2024-02-26T09:54:29;23.17;;;4.57;;
4638;SDS011;2332;38.646;-9.154;2024-02-26T09:56:58;24.50;;;4.07;;
4638;SDS011;2332;38.646;-9.154;2024-02-26T09:59:24;22.30;;;3.80;;
4638;SDS011;2332;38.646;-9.154;2024-02-26T10:01:50;33.43;;;5.23;;
4638;SDS011;2332;38.646;-9.154;2024-02-26T10:04:15;25.00;;;3.90;;
4638;SDS011;2332;38.646;-9.154;2024-02-26T10:06:41;28.83;;;4.33;;
4638;SDS011;2332;38.646;-9.154;2024-02-26T10:09:09;31.67;;;4.33;;
4638;SDS011;2332;38.646;-9.154;2024-02-26T10:11:34;16.20;;;3.90;;
4638;SDS011;2332;38.646;-9.154;2024-02-26T10:14:00;24.13;;;4.00;;
4638;SDS011;2332;38.646;-9.154;2024-02-26T10:16:26;24.43;;;4.20;;
4638;SDS011;2332;38.646;-9.154;2024-02-26T10:18:52;13.47;;;3.50;;
4638;SDS011;2332;38.646;-9.154;2024-02-26T10:21:21;13.63;;;3.40;;
4638;SDS011;2332;38.646;-9.154;2024-02-26T10:23:47;22.20;;;3.10;;
4638;SDS011;2332;38.646;-9.154;2024-02-26T10:26:12;11.97;;;3.00;;
4638;SDS011;2332;38.646;-9.154;2024-02-26T10:28:41;11.27;;;2.07;;
4638;SDS011;2332;38.646;-9.154;2024-02-26T10:31:07;13.63;;;3.43;;
4638;SDS011;2332;38.646;-9.154;2024-02-26T10:33:33;10.23;;;2.40;;
4638;SDS011;2332;38.646;-9.154;2024-02-26T10:35:59;13.60;;;1.80;;
4638;SDS011;2332;38.646;-9.154;2024-02-26T10:38:24;8.00;;;2.40;;
4638;SDS011;2332;38.646;-9.154;2024-02-26T10:40:50;16.57;;;2.50;;
4638;SDS011;2332;38.646;-9.154;2024-02-26T10:43:15;22.13;;;2.90;;
4638;SDS011;2332;38.646;-9.154;2024-02-26T10:45:41;8.80;;;2.10;;
4638;SDS011;2332;38.646;-9.154;2024-02-26T10:48:12;9.10;;;1.70;;
4638;SDS011;2332;38.646;-9.154;2024-02-26T10:50:38;5.83;;;1.50;;
4638;SDS011;2332;38.646;-9.154;2024-02-26T10:53:03;10.77;;;1.70;;
4638;SDS011;2332;38.646;-9.154;2024-02-26T10:55:30;6.13;;;1.70;;
4638;SDS011;2332;38.646;-9.154;2024-02-26T10:57:58;12.67;;;2.27;;
4638;SDS011;2332;38.646;-9.154;2024-02-26T11:00:23;10.47;;;1.63;;
4638;SDS011;2332;38.646;-9.154;2024-02-26T11:02:49;6.67;;;1.50;;
4638;SDS011;2332;38.646;-9.154;2024-02-26T11:05:16;9.60;;;2.10;;
4638;SDS011;2332;38.646;-9.154;2024-02-26T11:07:42;8.67;;;2.17;;
4638;SDS011;2332;38.646;-9.154;2024-02-26T11:10:08;10.70;;;3.23;;
4638;SDS011;2332;38.646;-9.154;2024-02-26T11:12:34;12.80;;;2.50;;
4638;SDS011;2332;38.646;-9.154;2024-02-26T11:15:03;16.90;;;2.70;;
4638;SDS011;2332;38.646;-9.154;2024-02-26T11:17:29;14.23;;;1.90;;
4638;SDS011;2332;38.646;-9.154;2024-02-26T11:19:57;9.60;;;2.33;;
4638;SDS011;2332;38.646;-9.154;2024-02-26T11:22:28;15.70;;;3.00;;
4638;SDS011;2332;38.646;-9.154;2024-02-26T11:24:54;14.13;;;2.43;;
4638;SDS011;2332;38.646;-9.154;2024-02-26T11:27:23;15.90;;;3.03;;
4638;SDS011;2332;38.646;-9.154;2024-02-26T11:29:50;19.60;;;2.23;;
4638;SDS011;2332;38.646;-9.154;2024-02-26T11:32:17;21.33;;;2.43;;
4638;SDS011;2332;38.646;-9.154;2024-02-26T11:34:42;10.80;;;2.50;;
4638;SDS011;2332;38.646;-9.154;2024-02-26T11:37:12;18.33;;;2.87;;
4638;SDS011;2332;38.646;-9.154;2024-02-26T11:39:41;13.10;;;2.23;;
4638;SDS011;2332;38.646;-9.154;2024-02-26T11:42:09;15.30;;;3.00;;
4638;SDS011;2332;38.646;-9.154;2024-02-26T11:44:36;6.53;;;1.40;;
4638;SDS011;2332;38.646;-9.154;2024-02-26T11:49:38;4.23;;;1.83;;
4638;SDS011;2332;38.646;-9.154;2024-02-26T11:52:07;6.40;;;1.60;;
4638;SDS011;2332;38.646;-9.154;2024-02-26T11:54:52;5.73;;;1.60;;
4638;SDS011;2332;38.646;-9.154;2024-02-26T11:59:50;6.93;;;1.83;;
4638;SDS011;2332;38.646;-9.154;2024-02-26T12:05:00;10.37;;;1.77;;
4638;SDS011;2332;38.646;-9.154;2024-02-26T12:07:29;12.07;;;2.73;;
4638;SDS011;2332;38.646;-9.154;2024-02-26T12:10:12;23.90;;;2.70;;
4638;SDS011;2332;38.646;-9.154;2024-02-26T12:12:38;9.63;;;2.57;;
4638;SDS011;2332;38.646;-9.154;2024-02-26T12:15:04;13.10;;;2.67;;
4638;SDS011;2332;38.646;-9.154;2024-02-26T12:17:30;13.27;;;3.03;;
4638;SDS011;2332;38.646;-9.154;2024-02-26T12:19:55;7.40;;;2.27;;
4638;SDS011;2332;38.646;-9.154;2024-02-26T12:22:32;23.70;;;3.27;;
4638;SDS011;2332;38.646;-9.154;2024-02-26T12:24:59;13.40;;;2.40;;
4638;SDS011;2332;38.646;-9.154;2024-02-26T12:27:28;10.50;;;2.27;;
4638;SDS011;2332;38.646;-9.154;2024-02-26T12:29:55;15.97;;;1.70;;
4638;SDS011;2332;38.646;-9.154;2024-02-26T12:32:20;7.13;;;1.73;;
4638;SDS011;2332;38.646;-9.154;2024-02-26T12:34:45;5.30;;;1.77;;
4638;SDS011;2332;38.646;-9.154;2024-02-26T12:37:11;12.13;;;2.43;;
4638;SDS011;2332;38.646;-9.154;2024-02-26T12:39:36;9.80;;;2.00;;
4638;SDS011;2332;38.646;-9.154;2024-02-26T12:42:02;9.57;;;2.50;;
4638;SDS011;2332;38.646;-9.154;2024-02-26T12:44:27;14.50;;;2.50;;
4638;SDS011;2332;38.646;-9.154;2024-02-26T12:47:02;8.83;;;2.80;;
4638;SDS011;2332;38.646;-9.154;2024-02-26T12:49:28;13.83;;;2.47;;
4638;SDS011;2332;38.646;-9.154;2024-02-26T12:51:53;9.87;;;2.10;;
4638;SDS011;2332;38.646;-9.154;2024-02-26T12:54:20;18.37;;;2.30;;
4638;SDS011;2332;38.646;-9.154;2024-02-26T12:56:46;15.73;;;2.30;;
4638;SDS011;2332;38.646;-9.154;2024-02-26T12:59:12;14.93;;;2.50;;
4638;SDS011;2332;38.646;-9.154;2024-02-26T13:01:37;13.00;;;2.70;;
4638;SDS011;2332;38.646;-9.154;2024-02-26T13:04:03;9.73;;;1.70;;
4638;SDS011;2332;38.646;-9.154;2024-02-26T13:06:31;6.90;;;1.70;;
4638;SDS011;2332;38.646;-9.154;2024-02-26T13:08:57;10.00;;;1.80;;
4638;SDS011;2332;38.646;-9.154;2024-02-26T13:11:26;10.63;;;2.50;;
4638;SDS011;2332;38.646;-9.154;2024-02-26T13:13:54;11.37;;;2.23;;
4638;SDS011;2332;38.646;-9.154;2024-02-26T13:16:19;13.30;;;2.10;;
4638;SDS011;2332;38.646;-9.154;2024-02-26T13:18:44;18.70;;;2.70;;
4638;SDS011;2332;38.646;-9.154;2024-02-26T13:21:14;9.93;;;2.40;;
4638;SDS011;2332;38.646;-9.154;2024-02-26T13:23:42;7.70;;;1.57;;
4638;SDS011;2332;38.646;-9.154;2024-02-26T13:26:08;10.80;;;2.47;;
4638;SDS011;2332;38.646;-9.154;2024-02-26T13:28:34;19.43;;;2.67;;
4638;SDS011;2332;38.646;-9.154;2024-02-26T13:30:59;12.80;;;2.20;;
4638;SDS011;2332;38.646;-9.154;2024-02-26T13:33:28;11.40;;;2.07;;
4638;SDS011;2332;38.646;-9.154;2024-02-26T13:35:55;6.67;;;1.87;;
4638;SDS011;2332;38.646;-9.154;2024-02-26T13:38:20;11.33;;;2.37;;
4638;SDS011;2332;38.646;-9.154;2024-02-26T13:40:46;9.93;;;2.57;;
4638;SDS011;2332;38.646;-9.154;2024-02-26T13:43:11;12.87;;;3.00;;
4638;SDS011;2332;38.646;-9.154;2024-02-26T13:45:37;12.07;;;2.60;;
4638;SDS011;2332;38.646;-9.154;2024-02-26T13:48:03;20.70;;;2.47;;
4638;SDS011;2332;38.646;-9.154;2024-02-26T13:50:29;17.37;;;2.87;;
4638;SDS011;2332;38.646;-9.154;2024-02-26T13:52:54;15.13;;;2.63;;
4638;SDS011;2332;38.646;-9.154;2024-02-26T13:55:30;10.23;;;2.07;;
4638;SDS011;2332;38.646;-9.154;2024-02-26T13:57:57;9.43;;;1.47;;
4638;SDS011;2332;38.646;-9.154;2024-02-26T14:00:22;8.80;;;1.60;;
4638;SDS011;2332;38.646;-9.154;2024-02-26T14:02:49;14.13;;;2.00;;
4638;SDS011;2332;38.646;-9.154;2024-02-26T14:05:15;4.83;;;1.77;;
4638;SDS011;2332;38.646;-9.154;2024-02-26T14:07:40;13.10;;;2.17;;
4638;SDS011;2332;38.646;-9.154;2024-02-26T14:10:06;11.70;;;2.30;;
4638;SDS011;2332;38.646;-9.154;2024-02-26T14:12:32;13.47;;;2.50;;
4638;SDS011;2332;38.646;-9.154;2024-02-26T14:14:57;8.13;;;1.97;;
4638;SDS011;2332;38.646;-9.154;2024-02-26T14:17:25;12.10;;;2.20;;
4638;SDS011;2332;38.646;-9.154;2024-02-26T14:19:50;12.17;;;2.47;;
4638;SDS011;2332;38.646;-9.154;2024-02-26T14:22:16;18.13;;;2.70;;
4638;SDS011;2332;38.646;-9.154;2024-02-26T14:24:41;16.00;;;2.87;;
4638;SDS011;2332;38.646;-9.154;2024-02-26T14:27:10;14.13;;;2.70;;
4638;SDS011;2332;38.646;-9.154;2024-02-26T14:29:39;11.93;;;3.07;;
4638;SDS011;2332;38.646;-9.154;2024-02-26T14:32:07;12.33;;;4.13;;
4638;SDS011;2332;38.646;-9.154;2024-02-26T14:34:32;14.80;;;2.97;;
4638;SDS011;2332;38.646;-9.154;2024-02-26T14:36:58;10.73;;;2.60;;
4638;SDS011;2332;38.646;-9.154;2024-02-26T14:39:23;11.07;;;2.53;;
4638;SDS011;2332;38.646;-9.154;2024-02-26T14:41:48;13.40;;;2.87;;
4638;SDS011;2332;38.646;-9.154;2024-02-26T14:44:14;16.83;;;3.27;;
4638;SDS011;2332;38.646;-9.154;2024-02-26T14:46:39;14.97;;;2.77;;
4638;SDS011;2332;38.646;-9.154;2024-02-26T14:49:05;9.27;;;2.10;;
4638;SDS011;2332;38.646;-9.154;2024-02-26T14:51:30;15.03;;;1.90;;